Latest Coastal Weather Observations for St Helens

IDT60701

Issued at 7:35 pm EST Thursday 24 April 2014 (issued every 10 minutes, with the page automatically refreshed every 10 minutes)

About coastal observations | Map of coastal stations | Coastal observations for TAS | Marine services | Other Formats
Station Details ID: 092120 Name: ST HELENS AERODROME Lat: -41.34 Lon: 148.28 Height: 48.0 m
Data from the previous 72 hours. | See also: Recent months at St Helens
Date/Time
EST
Temp

°C
Wind Pressure Rain
since 9am
mm
Weather Cloud Vis
km
Sea
Height
m
Swell
Dir
 
Speed
knots
Gust
knots
hPa Trend Height
m
Period
s
Dir
24/07:30pm 8.7 WSW 1 5 1016.5 - 0.0 - - - - - - -
24/07:00pm 9.4 WSW 3 5 1015.9 - 0.0 - - - - - - -
24/06:30pm 8.5 S 3 5 1015.1 - 0.0 - - - - - - -
24/06:00pm 10.1 W 3 5 1014.3 - 0.0 - - - - - - -
24/05:30pm 11.4 W 3 5 1013.7 - 0.0 - - - - - - -
24/05:00pm 12.6 WSW 4 7 1012.8 - 0.0 - - - - - - -
24/04:30pm 13.6 SW 6 11 1011.7 - 0.0 - - - - - - -
24/04:00pm 14.2 WSW 8 15 1011.3 - 0.0 - - - - - - -
24/03:30pm 14.9 WSW 7 16 1010.4 - 0.0 - - - - - - -
24/03:00pm 15.5 WSW 6 10 1009.7 - 0.0 - - - - - - -
24/02:30pm 16.4 SSW 5 9 1009.1 - 0.0 - - - - - - -
24/02:00pm 14.8 SW 8 16 1008.6 - 0.0 - - - - - - -
24/01:30pm 15.6 SW 6 12 1007.9 - 0.0 - - - - - - -
24/01:00pm 15.5 WSW 8 16 1007.4 - 0.0 - - - - - - -
24/12:30pm 16.0 SW 7 14 1006.9 - 0.0 - - - - - - -
24/12:00pm 15.7 SW 9 15 1006.4 - 0.0 - - - - - - -
24/11:30am 14.6 WSW 8 12 1006.2 - 0.0 - - - - - - -
24/11:00am 14.1 SW 7 15 1005.8 - 0.0 - - - - - - -
24/10:30am 14.7 W 7 13 1005.5 - 0.0 - - - - - - -
24/10:00am 13.8 W 9 16 1005.0 - 0.0 - - - - - - -
24/09:30am 13.0 W 9 18 1004.6 - 0.0 - - - - - - -
24/09:00am 11.8 W 8 17 1004.3 - 0.0 Fine Partly cloudy 30 - - - -
24/08:30am 11.7 W 7 12 1003.7 - 0.0 - - - - - - -
24/08:00am 12.0 W 6 13 1002.8 - 0.0 - - - - - - -
24/07:30am 13.3 SW 10 21 1003.0 - 0.0 - - - - - - -
24/07:00am 14.2 WSW 7 14 1001.6 - 0.0 - - - - - - -
24/06:30am 15.3 NW 13 22 1000.8 - 0.0 - - - - - - -
24/06:00am 15.3 NNW 15 25 1000.6 - 0.0 - - - - - - -
24/05:59am 15.3 NNW 15 25 1000.7 - 0.0 - - - - - - -
24/05:30am 14.8 NNW 13 23 1001.4 - 0.0 - - - - - - -
24/05:00am 14.8 NNW 12 22 1001.7 - 0.0 - - - - - - -
24/04:30am 14.1 N 8 13 1002.6 - 0.0 - - - - - - -
24/04:00am 14.0 N 8 12 1003.1 - 0.0 - - - - - - -
24/03:30am 13.7 N 11 15 1003.7 - 0.0 - - - - - - -
24/03:00am 13.4 N 13 17 1004.5 - 0.0 - - - - - - -
24/02:30am 13.1 NNW 9 13 1005.3 - 0.0 - - - - - - -
24/02:00am 13.2 NNW 10 14 1005.9 - 0.0 - - - - - - -
24/01:30am 13.3 NW 10 16 1006.2 - 0.0 - - - - - - -
24/01:00am 13.6 WNW 11 20 1006.3 - 0.0 - - - - - - -
24/12:30am 13.9 W 11 20 1006.5 - 0.0 - - - - - - -
24/12:00am 13.7 W 8 15 1007.1 - 0.0 - - - - - - -
 
Date/Time
EST
Temp

°C
Wind Pressure Rain
since 9am
mm
Weather Cloud Vis
km
Sea
Height
m
Swell
Dir
 
Speed
knots
Gust
knots
hPa Trend Height
m
Period
s
Dir
23/11:30pm 13.1 WNW 6 9 1007.8 - 0.0 - - - - - - -
23/11:00pm 12.8 NNW 5 8 1008.3 - 0.0 - - - - - - -
23/10:30pm 12.7 NNW 6 9 1009.0 - 0.0 - - - - - - -
23/10:00pm 11.6 N 2 4 1009.4 - 0.0 - - - - - - -
23/09:30pm 11.8 W 4 6 1009.8 - 0.0 - - - - - - -
23/09:00pm 11.4 W 4 7 1009.9 - 0.0 - - - - - - -
23/08:30pm 11.1 CALM 0 0 1010.2 - 0.0 - - - - - - -
23/08:00pm 12.4 NNW 5 7 1010.5 - 0.0 - - - - - - -
23/07:30pm 12.9 N 5 7 1010.8 - 0.0 - - - - - - -
23/07:00pm 12.7 NNW 3 5 1010.9 - 0.0 - - - - - - -
23/06:30pm 13.0 NW 4 6 1011.2 - 0.0 - - - - - - -
23/06:00pm 13.4 NNW 3 5 1011.1 - 0.0 - - - - - - -
23/05:30pm 13.1 N 2 5 1011.2 - 0.0 - - - - - - -
23/05:00pm 13.8 N 4 6 1011.2 - 0.0 - - - - - - -
23/04:30pm 13.5 W 6 11 1011.5 - 0.0 - - - - - - -
23/04:00pm 15.4 NNW 4 7 1011.4 - 0.0 - - - - - - -
23/03:30pm 15.6 WNW 7 12 1011.4 - 0.0 - - - - - - -
23/03:00pm 16.4 WNW 7 11 1011.4 - 0.0 - - - - - - -
23/02:30pm 16.4 W 7 11 1011.6 - 0.0 - - - - - - -
23/02:00pm 16.7 NNW 6 8 1012.0 - 0.0 - - - - - - -
23/01:30pm 16.4 NNW 7 11 1012.2 - 0.0 - - - - - - -
23/01:00pm 15.7 WNW 7 12 1012.6 - 0.0 - - - - - - -
23/12:30pm 16.4 WNW 7 13 1013.1 - 0.0 - - - - - - -
23/12:00pm 15.9 NNW 6 9 1013.5 - 0.0 - - - - - - -
23/11:30am 15.6 NW 4 7 1014.2 - 0.0 - - - - - - -
23/11:00am 16.3 NNW 6 11 1014.7 - 0.0 - - - - - - -
23/10:30am 14.9 NW 4 6 1014.9 - 0.0 - - - - - - -
23/10:00am 13.6 W 3 5 1015.2 - 0.0 - - - - - - -
23/09:30am 11.7 NW 4 6 1015.5 - 0.0 - - - - - - -
23/09:00am 10.5 NNW 4 6 1015.5 - 0.2 Fine Partly cloudy 30 - - - -
23/08:30am 9.0 SW 3 5 1015.7 - 0.2 - - - - - - -
23/08:00am 7.8 NW 3 6 1015.7 - 0.2 - - - - - - -
23/07:30am 7.4 NW 4 8 1015.7 - 0.2 - - - - - - -
23/07:00am 7.1 N 3 5 1015.5 - 0.2 - - - - - - -
23/06:30am 7.3 NW 4 5 1015.2 - 0.2 - - - - - - -
23/06:00am 6.9 NW 6 8 1015.2 - 0.2 - - - - - - -
23/05:30am 7.3 NNW 5 7 1014.7 - 0.2 - - - - - - -
23/05:00am 8.5 WSW 3 4 1014.7 - 0.2 - - - - - - -
23/04:30am 8.6 NW 5 7 1014.8 - 0.2 - - - - - - -
23/04:00am 8.6 SW 2 7 1014.6 - 0.2 - - - - - - -
23/03:30am 8.8 WNW 4 7 1014.5 - 0.2 - - - - - - -
23/03:00am 9.4 WNW 4 6 1014.6 - 0.2 - - - - - - -
23/02:30am 9.4 W 3 5 1014.6 - 0.2 - - - - - - -
23/02:00am 9.5 WSW 2 5 1014.6 - 0.2 - - - - - - -
23/01:30am 9.4 WNW 4 7 1014.7 - 0.2 - - - - - - -
23/01:00am 9.5 NNW 3 6 1014.7 - 0.2 - - - - - - -
23/12:30am 9.4 NW 5 7 1014.8 - 0.2 - - - - - - -
23/12:00am 9.3 NNW 5 6 1014.7 - 0.2 - - - - - - -
 
Date/Time
EST
Temp

°C
Wind Pressure Rain
since 9am
mm
Weather Cloud Vis
km
Sea
Height
m
Swell
Dir
 
Speed
knots
Gust
knots
hPa Trend Height
m
Period
s
Dir
22/11:30pm 9.6 NNW 2 6 1014.6 - 0.2 - - - - - - -
22/11:00pm 10.1 NW 5 6 1014.5 - 0.2 - - - - - - -
22/10:30pm 10.5 NNW 5 7 1014.3 - 0.2 - - - - - - -
22/10:00pm 11.0 NNW 4 5 1014.1 - 0.2 - - - - - - -
22/09:30pm 11.3 NNW 2 4 1013.8 - 0.2 - - - - - - -
22/09:00pm 11.8 NNW 3 5 1013.2 - 0.2 - - - - - - -
22/08:30pm 12.2 NNW 5 7 1012.8 - 0.2 - - - - - - -
22/08:00pm 12.4 N 4 6 1012.3 - 0.2 - - - - - - -
22/07:30pm 13.4 NNW 4 7 1011.7 - 0.2 - - - - - - -
22/07:00pm 14.2 WNW 4 6 1011.3 - 0.2 - - - - - - -
22/06:30pm 14.1 W 4 7 1010.9 - 0.2 - - - - - - -
22/06:00pm 15.0 WNW 5 8 1010.3 - 0.2 - - - - - - -
22/05:30pm 15.7 WNW 5 9 1010.0 - 0.2 - - - - - - -
22/05:00pm 17.1 NW 5 8 1009.5 - 0.2 - - - - - - -
22/04:30pm 17.8 WNW 7 11 1009.1 - 0.2 - - - - - - -
22/04:00pm 18.6 WNW 7 11 1008.8 - 0.2 - - - - - - -
22/03:30pm 19.3 NW 7 13 1008.6 - 0.2 - - - - - - -
22/03:00pm 19.6 WNW 7 11 1008.2 - 0.2 - - - - - - -
22/02:30pm 19.4 W 7 12 1007.9 - 0.2 - - - - - - -
22/02:00pm 18.7 W 10 18 1007.3 - 0.2 - - - - - - -
22/01:30pm 18.8 WNW 10 18 1007.4 - 0.2 - - - - - - -
22/01:00pm 19.2 W 10 20 1007.9 - 0.2 - - - - - - -
22/12:30pm 18.7 W 8 17 1007.8 - 0.2 - - - - - - -
22/12:00pm 18.6 WNW 8 14 1007.9 - 0.2 - - - - - - -
22/11:30am 18.1 WNW 6 11 1008.2 - 0.2 - - - - - - -
22/11:00am 16.2 NNW 7 13 1008.3 - 0.2 - - - - - - -
22/10:30am 15.9 NNW 8 13 1008.1 - 0.2 - - - - - - -
22/10:00am 15.6 NW 8 12 1008.2 - 0.2 - - - - - - -
22/09:30am 15.1 NW 8 12 1008.2 - 0.2 - - - - - - -
22/09:00am 14.9 NNW 9 13 1008.5 - 7.2 Distant precip. Mostly cloudy 25 - - - -
22/08:30am 15.0 NW 10 17 1008.8 - 5.0 - - - - - - -
22/08:00am 15.6 WNW 10 14 1008.5 - 3.6 - - - - - - -
22/07:30am 15.4 NW 10 21 1007.8 - 3.6 - - - - - - -
22/07:00am 15.8 NW 11 19 1007.7 - 2.8 - - - - - - -
22/06:30am 15.4 WNW 9 15 1007.4 - 2.6 - - - - - - -
22/06:00am 15.4 WNW 13 23 1007.3 - 2.2 - - - - - - -
22/05:30am 16.9 NW 15 27 1007.0 - 1.8 - - - - - - -
22/05:24am 17.0 NW 15 27 1007.2 - 1.8 - - - - - - -
22/05:00am 16.9 NW 13 27 1007.2 - 1.8 - - - - - - -
22/04:30am 15.9 NW 10 19 1007.1 - 1.8 - - - - - - -
22/04:00am 16.2 NW 11 19 1007.2 - 1.8 - - - - - - -
22/03:30am 16.2 NW 13 21 1007.3 - 1.8 - - - - - - -
22/03:00am 15.7 WNW 11 19 1007.5 - 1.8 - - - - - - -
22/02:30am 15.4 NW 12 23 1008.1 - 1.8 - - - - - - -
22/02:00am 15.4 NW 10 20 1008.8 - 1.8 - - - - - - -
22/01:30am 15.5 WNW 10 19 1009.6 - 1.8 - - - - - - -
22/01:00am 14.7 N 7 11 1009.9 - 1.8 - - - - - - -
22/12:30am 14.3 NNW 6 11 1010.6 - 1.8 - - - - - - -
22/12:00am 13.5 NW 4 6 1011.1 - 1.8 - - - - - - -
 
Date/Time
EST
Temp

°C
Wind Pressure Rain
since 9am
mm
Weather Cloud Vis
km
Sea
Height
m
Swell
Dir
 
Speed
knots
Gust
knots
hPa Trend Height
m
Period
s
Dir
21/11:30pm 13.6 WNW 4 7 1011.8 - 1.8 - - - - - - -
21/11:00pm 14.0 NNW 7 11 1011.9 - 1.8 - - - - - - -
21/10:30pm 13.2 NNW 5 9 1012.2 - 1.6 - - - - - - -
21/10:00pm 13.1 N 4 7 1012.7 - 1.6 - - - - - - -
21/09:30pm 12.8 N 3 7 1013.0 - 1.6 - - - - - - -
21/09:00pm 12.8 N 3 7 1013.1 - 1.6 - - - - - - -
21/08:30pm 13.0 NNW 5 7 1013.5 - 1.4 - - - - - - -
21/08:00pm 13.1 NNW 7 11 1013.7 - 1.4 - - - - - - -

Other Formats:

Comma delimited format used in spreadsheet applications
http://www.bom.gov.au/fwo/IDT60701/IDT60701.95981.axf

JavaScript Object Notation format (JSON) in row-major order
http://www.bom.gov.au/fwo/IDT60701/IDT60701.95981.json